sensor_id;sensor_type;location;lat;lon;timestamp;pressure;altitude;pressure_sealevel;temperature;humidity
78839;BME280;68405;47.190;27.558;2023-09-07T00:01:22;100599.77;;;13.82;58.53
78839;BME280;68405;47.190;27.558;2023-09-07T00:03:51;100599.56;;;13.79;59.07
78839;BME280;68405;47.190;27.558;2023-09-07T00:06:19;100601.09;;;13.75;58.55
78839;BME280;68405;47.190;27.558;2023-09-07T00:08:48;100599.08;;;13.73;59.14
78839;BME280;68405;47.190;27.558;2023-09-07T00:11:17;100601.64;;;13.69;59.18
78839;BME280;68405;47.190;27.558;2023-09-07T00:13:49;100600.91;;;13.65;58.78
78839;BME280;68405;47.190;27.558;2023-09-07T00:16:19;100604.30;;;13.63;59.72
78839;BME280;68405;47.190;27.558;2023-09-07T00:18:50;100599.89;;;13.60;59.27
78839;BME280;68405;47.190;27.558;2023-09-07T00:21:19;100599.64;;;13.56;58.96
78839;BME280;68405;47.190;27.558;2023-09-07T00:23:48;100598.67;;;13.54;58.95
78839;BME280;68405;47.190;27.558;2023-09-07T00:26:16;100597.91;;;13.51;60.20
78839;BME280;68405;47.190;27.558;2023-09-07T00:28:46;100598.94;;;13.47;59.46
78839;BME280;68405;47.190;27.558;2023-09-07T00:31:15;100598.97;;;13.46;59.45
78839;BME280;68405;47.190;27.558;2023-09-07T00:33:44;100594.30;;;13.45;59.77
78839;BME280;68405;47.190;27.558;2023-09-07T00:36:13;100596.64;;;13.43;59.74
78839;BME280;68405;47.190;27.558;2023-09-07T00:38:41;100595.07;;;13.43;59.62
78839;BME280;68405;47.190;27.558;2023-09-07T00:41:11;100592.45;;;13.42;61.39
78839;BME280;68405;47.190;27.558;2023-09-07T00:43:40;100596.89;;;13.40;61.23
78839;BME280;68405;47.190;27.558;2023-09-07T00:46:09;100593.98;;;13.38;61.88
78839;BME280;68405;47.190;27.558;2023-09-07T00:48:39;100594.25;;;13.35;60.81
78839;BME280;68405;47.190;27.558;2023-09-07T00:51:08;100594.01;;;13.32;60.67
78839;BME280;68405;47.190;27.558;2023-09-07T00:53:37;100592.16;;;13.30;61.64
78839;BME280;68405;47.190;27.558;2023-09-07T00:56:07;100591.35;;;13.28;60.88
78839;BME280;68405;47.190;27.558;2023-09-07T00:58:36;100592.81;;;13.26;61.67
78839;BME280;68405;47.190;27.558;2023-09-07T01:01:05;100593.61;;;13.23;61.50
78839;BME280;68405;47.190;27.558;2023-09-07T01:03:33;100595.77;;;13.21;60.82
78839;BME280;68405;47.190;27.558;2023-09-07T01:06:07;100590.77;;;13.20;61.12
78839;BME280;68405;47.190;27.558;2023-09-07T01:08:44;100590.65;;;13.17;60.81
78839;BME280;68405;47.190;27.558;2023-09-07T01:11:17;100592.66;;;13.15;61.19
78839;BME280;68405;47.190;27.558;2023-09-07T01:13:46;100594.11;;;13.14;61.01
78839;BME280;68405;47.190;27.558;2023-09-07T01:16:15;100593.61;;;13.12;61.63
78839;BME280;68405;47.190;27.558;2023-09-07T01:18:45;100595.56;;;13.12;63.18
78839;BME280;68405;47.190;27.558;2023-09-07T01:21:15;100595.02;;;13.12;66.36
78839;BME280;68405;47.190;27.558;2023-09-07T01:23:45;100594.77;;;13.09;62.68
78839;BME280;68405;47.190;27.558;2023-09-07T01:26:15;100596.60;;;13.07;63.11
78839;BME280;68405;47.190;27.558;2023-09-07T01:28:44;100597.38;;;13.04;64.00
78839;BME280;68405;47.190;27.558;2023-09-07T01:31:13;100597.97;;;13.02;65.35
78839;BME280;68405;47.190;27.558;2023-09-07T01:33:43;100601.55;;;12.99;65.42
78839;BME280;68405;47.190;27.558;2023-09-07T01:36:12;100602.21;;;12.95;66.29
78839;BME280;68405;47.190;27.558;2023-09-07T01:38:41;100602.86;;;12.91;63.84
78839;BME280;68405;47.190;27.558;2023-09-07T01:41:10;100604.52;;;12.88;64.20
78839;BME280;68405;47.190;27.558;2023-09-07T01:43:38;100606.52;;;12.85;64.16
78839;BME280;68405;47.190;27.558;2023-09-07T01:46:07;100599.70;;;12.81;63.80
78839;BME280;68405;47.190;27.558;2023-09-07T01:48:36;100601.34;;;12.79;64.58
78839;BME280;68405;47.190;27.558;2023-09-07T01:51:05;100600.41;;;12.76;63.85
78839;BME280;68405;47.190;27.558;2023-09-07T01:53:34;100602.77;;;12.72;64.09
78839;BME280;68405;47.190;27.558;2023-09-07T01:56:03;100608.20;;;12.71;63.13
78839;BME280;68405;47.190;27.558;2023-09-07T01:58:32;100610.97;;;12.72;64.16
78839;BME280;68405;47.190;27.558;2023-09-07T02:01:01;100611.80;;;12.73;68.21
78839;BME280;68405;47.190;27.558;2023-09-07T02:29:13;100621.77;;;12.78;67.88
78839;BME280;68405;47.190;27.558;2023-09-07T02:31:42;100620.11;;;12.75;69.23
78839;BME280;68405;47.190;27.558;2023-09-07T02:34:11;100621.38;;;12.74;70.10
78839;BME280;68405;47.190;27.558;2023-09-07T02:36:39;100618.42;;;12.73;71.78
78839;BME280;68405;47.190;27.558;2023-09-07T02:39:08;100616.70;;;12.72;71.03
78839;BME280;68405;47.190;27.558;2023-09-07T02:41:38;100617.04;;;12.73;68.67
78839;BME280;68405;47.190;27.558;2023-09-07T02:44:07;100618.20;;;12.75;72.95
78839;BME280;68405;47.190;27.558;2023-09-07T02:46:35;100619.17;;;12.77;70.18
78839;BME280;68405;47.190;27.558;2023-09-07T02:49:04;100619.67;;;12.78;71.02
78839;BME280;68405;47.190;27.558;2023-09-07T02:51:33;100617.75;;;12.78;70.01
78839;BME280;68405;47.190;27.558;2023-09-07T02:54:03;100620.52;;;12.79;69.32
78839;BME280;68405;47.190;27.558;2023-09-07T02:56:32;100619.10;;;12.80;71.94
78839;BME280;68405;47.190;27.558;2023-09-07T02:59:00;100623.31;;;12.79;71.02
78839;BME280;68405;47.190;27.558;2023-09-07T03:01:29;100624.42;;;12.76;72.01
78839;BME280;68405;47.190;27.558;2023-09-07T03:03:59;100622.59;;;12.74;68.85
78839;BME280;68405;47.190;27.558;2023-09-07T03:06:28;100620.71;;;12.73;70.51
78839;BME280;68405;47.190;27.558;2023-09-07T03:08:56;100624.62;;;12.70;71.15
78839;BME280;68405;47.190;27.558;2023-09-07T03:11:26;100621.70;;;12.68;69.71
78839;BME280;68405;47.190;27.558;2023-09-07T03:13:55;100625.06;;;12.67;68.60
78839;BME280;68405;47.190;27.558;2023-09-07T03:16:24;100625.96;;;12.66;70.89
78839;BME280;68405;47.190;27.558;2023-09-07T03:18:53;100631.45;;;12.64;68.80
78839;BME280;68405;47.190;27.558;2023-09-07T03:21:21;100628.20;;;12.62;69.10
78839;BME280;68405;47.190;27.558;2023-09-07T03:23:53;100630.86;;;12.60;68.09
78839;BME280;68405;47.190;27.558;2023-09-07T03:26:22;100632.33;;;12.57;67.46
78839;BME280;68405;47.190;27.558;2023-09-07T03:28:51;100632.77;;;12.55;67.48
78839;BME280;68405;47.190;27.558;2023-09-07T03:31:20;100633.84;;;12.54;67.28
78839;BME280;68405;47.190;27.558;2023-09-07T03:33:49;100634.90;;;12.53;67.77
78839;BME280;68405;47.190;27.558;2023-09-07T03:48:27;100645.90;;;13.13;71.89
78839;BME280;68405;47.190;27.558;2023-09-07T03:51:00;100648.19;;;13.19;71.41
78839;BME280;68405;47.190;27.558;2023-09-07T03:53:32;100653.23;;;13.19;70.75
78839;BME280;68405;47.190;27.558;2023-09-07T03:56:04;100654.96;;;13.20;70.56
78839;BME280;68405;47.190;27.558;2023-09-07T03:58:35;100657.55;;;13.20;71.05
78839;BME280;68405;47.190;27.558;2023-09-07T04:01:07;100659.76;;;13.22;69.10
78839;BME280;68405;47.190;27.558;2023-09-07T04:03:39;100657.70;;;13.27;69.06
78839;BME280;68405;47.190;27.558;2023-09-07T04:06:11;100658.23;;;13.32;70.15
78839;BME280;68405;47.190;27.558;2023-09-07T04:08:43;100659.57;;;13.39;70.87
78839;BME280;68405;47.190;27.558;2023-09-07T04:11:15;100659.85;;;13.61;71.57
78839;BME280;68405;47.190;27.558;2023-09-07T04:13:46;100661.36;;;13.74;70.28
78839;BME280;68405;47.190;27.558;2023-09-07T04:16:19;100659.25;;;13.89;70.81
78839;BME280;68405;47.190;27.558;2023-09-07T04:18:51;100660.45;;;14.09;70.32
78839;BME280;68405;47.190;27.558;2023-09-07T04:21:23;100658.60;;;14.54;69.41
78839;BME280;68405;47.190;27.558;2023-09-07T04:23:54;100664.37;;;15.21;67.79
78839;BME280;68405;47.190;27.558;2023-09-07T04:26:26;100661.54;;;16.43;64.27
78839;BME280;68405;47.190;27.558;2023-09-07T04:28:57;100667.23;;;17.75;60.22
78839;BME280;68405;47.190;27.558;2023-09-07T04:31:29;100669.16;;;18.75;59.28
78839;BME280;68405;47.190;27.558;2023-09-07T04:34:01;100673.77;;;19.43;58.66
78839;BME280;68405;47.190;27.558;2023-09-07T04:36:33;100673.70;;;20.55;55.61
78839;BME280;68405;47.190;27.558;2023-09-07T04:39:05;100668.16;;;21.82;52.85
78839;BME280;68405;47.190;27.558;2023-09-07T04:41:36;100667.05;;;22.93;47.02
78839;BME280;68405;47.190;27.558;2023-09-07T04:44:08;100669.45;;;23.89;43.03
78839;BME280;68405;47.190;27.558;2023-09-07T04:46:40;100673.66;;;24.92;44.37
78839;BME280;68405;47.190;27.558;2023-09-07T04:49:12;100667.52;;;25.47;38.07
78839;BME280;68405;47.190;27.558;2023-09-07T04:51:44;100668.44;;;26.44;38.70
78839;BME280;68405;47.190;27.558;2023-09-07T04:54:15;100665.95;;;27.33;37.45
78839;BME280;68405;47.190;27.558;2023-09-07T04:56:47;100667.70;;;28.12;35.13
78839;BME280;68405;47.190;27.558;2023-09-07T04:59:22;100666.13;;;28.72;33.33
78839;BME280;68405;47.190;27.558;2023-09-07T05:01:53;100666.17;;;29.53;32.87
78839;BME280;68405;47.190;27.558;2023-09-07T05:04:25;100666.31;;;30.11;31.01
78839;BME280;68405;47.190;27.558;2023-09-07T05:06:57;100669.39;;;30.87;29.51
78839;BME280;68405;47.190;27.558;2023-09-07T05:09:29;100671.20;;;31.54;28.71
78839;BME280;68405;47.190;27.558;2023-09-07T05:12:01;100674.56;;;31.91;28.03
78839;BME280;68405;47.190;27.558;2023-09-07T05:14:32;100673.36;;;32.52;26.54
78839;BME280;68405;47.190;27.558;2023-09-07T05:17:04;100675.16;;;33.19;25.70
78839;BME280;68405;47.190;27.558;2023-09-07T05:19:36;100679.95;;;33.65;25.34
78839;BME280;68405;47.190;27.558;2023-09-07T05:22:08;100680.94;;;33.94;23.98
78839;BME280;68405;47.190;27.558;2023-09-07T05:24:39;100680.52;;;34.51;23.93
78839;BME280;68405;47.190;27.558;2023-09-07T05:27:10;100680.29;;;35.14;22.22
78839;BME280;68405;47.190;27.558;2023-09-07T05:29:42;100682.67;;;35.46;21.25
78839;BME280;68405;47.190;27.558;2023-09-07T05:32:14;100688.11;;;36.19;21.74
78839;BME280;68405;47.190;27.558;2023-09-07T05:34:46;100689.11;;;36.09;20.52
78839;BME280;68405;47.190;27.558;2023-09-07T05:37:17;100687.79;;;36.48;20.23
78839;BME280;68405;47.190;27.558;2023-09-07T05:39:49;100693.20;;;37.31;19.81
78839;BME280;68405;47.190;27.558;2023-09-07T05:42:21;100693.46;;;37.85;18.73
78839;BME280;68405;47.190;27.558;2023-09-07T05:44:52;100698.45;;;38.16;18.19
78839;BME280;68405;47.190;27.558;2023-09-07T05:47:23;100695.76;;;38.52;17.58
78839;BME280;68405;47.190;27.558;2023-09-07T05:49:56;100701.60;;;38.70;17.09
78839;BME280;68405;47.190;27.558;2023-09-07T05:52:27;100707.21;;;38.94;16.85
78839;BME280;68405;47.190;27.558;2023-09-07T05:54:59;100705.16;;;39.48;16.92
78839;BME280;68405;47.190;27.558;2023-09-07T05:57:30;100710.24;;;40.20;16.87
78839;BME280;68405;47.190;27.558;2023-09-07T06:00:03;100712.26;;;40.66;16.01
78839;BME280;68405;47.190;27.558;2023-09-07T06:02:35;100712.36;;;40.75;15.36
78839;BME280;68405;47.190;27.558;2023-09-07T06:05:08;100714.45;;;41.47;15.29
78839;BME280;68405;47.190;27.558;2023-09-07T06:07:40;100715.61;;;41.99;14.25
78839;BME280;68405;47.190;27.558;2023-09-07T06:10:12;100718.45;;;42.60;13.95
78839;BME280;68405;47.190;27.558;2023-09-07T06:12:44;100714.46;;;43.14;13.47
78839;BME280;68405;47.190;27.558;2023-09-07T06:15:16;100713.69;;;42.68;13.67
78839;BME280;68405;47.190;27.558;2023-09-07T06:17:47;100713.95;;;40.97;14.98
78839;BME280;68405;47.190;27.558;2023-09-07T06:20:20;100714.55;;;39.97;15.75
78839;BME280;68405;47.190;27.558;2023-09-07T06:22:51;100717.77;;;39.25;16.48
78839;BME280;68405;47.190;27.558;2023-09-07T06:25:23;100714.45;;;39.29;16.31
78839;BME280;68405;47.190;27.558;2023-09-07T06:27:55;100714.41;;;38.77;16.70
78839;BME280;68405;47.190;27.558;2023-09-07T06:30:27;100715.30;;;38.13;17.47
78839;BME280;68405;47.190;27.558;2023-09-07T06:32:59;100720.89;;;37.16;18.22
78839;BME280;68405;47.190;27.558;2023-09-07T06:35:31;100721.73;;;36.19;19.52
78839;BME280;68405;47.190;27.558;2023-09-07T06:38:06;100721.33;;;35.42;20.10
78839;BME280;68405;47.190;27.558;2023-09-07T06:40:37;100722.80;;;35.93;19.84
78839;BME280;68405;47.190;27.558;2023-09-07T06:43:09;100719.95;;;35.47;20.27
78839;BME280;68405;47.190;27.558;2023-09-07T06:45:41;100716.89;;;34.76;20.93
78839;BME280;68405;47.190;27.558;2023-09-07T06:48:12;100720.04;;;34.38;21.55
78839;BME280;68405;47.190;27.558;2023-09-07T06:50:45;100720.45;;;34.09;21.86
78839;BME280;68405;47.190;27.558;2023-09-07T06:53:19;100721.44;;;33.72;22.30
78839;BME280;68405;47.190;27.558;2023-09-07T06:55:58;100718.08;;;34.90;21.29
78839;BME280;68405;47.190;27.558;2023-09-07T06:58:30;100723.87;;;36.59;19.55
78839;BME280;68405;47.190;27.558;2023-09-07T07:01:04;100722.77;;;37.93;18.39
78839;BME280;68405;47.190;27.558;2023-09-07T07:03:36;100720.34;;;38.95;17.32
78839;BME280;68405;47.190;27.558;2023-09-07T07:06:08;100720.79;;;39.39;16.74
78839;BME280;68405;47.190;27.558;2023-09-07T07:08:40;100716.16;;;39.43;16.53
78839;BME280;68405;47.190;27.558;2023-09-07T07:11:12;100719.14;;;39.21;16.99
78839;BME280;68405;47.190;27.558;2023-09-07T07:13:44;100719.84;;;39.32;17.02
78839;BME280;68405;47.190;27.558;2023-09-07T07:16:16;100720.38;;;40.17;16.31
78839;BME280;68405;47.190;27.558;2023-09-07T07:18:47;100721.29;;;40.85;15.67
78839;BME280;68405;47.190;27.558;2023-09-07T07:21:19;100722.71;;;42.26;14.29
78839;BME280;68405;47.190;27.558;2023-09-07T07:23:51;100721.73;;;44.08;12.78
78839;BME280;68405;47.190;27.558;2023-09-07T07:26:22;100720.85;;;45.81;11.50
78839;BME280;68405;47.190;27.558;2023-09-07T07:28:54;100721.98;;;45.99;11.43
78839;BME280;68405;47.190;27.558;2023-09-07T07:31:26;100722.65;;;46.66;11.18
78839;BME280;68405;47.190;27.558;2023-09-07T07:33:58;100724.77;;;46.40;11.33
78839;BME280;68405;47.190;27.558;2023-09-07T07:36:30;100723.61;;;45.85;11.36
78839;BME280;68405;47.190;27.558;2023-09-07T07:39:02;100727.17;;;45.65;11.85
78839;BME280;68405;47.190;27.558;2023-09-07T07:41:34;100726.19;;;45.57;12.02
78839;BME280;68405;47.190;27.558;2023-09-07T07:44:06;100721.58;;;45.43;11.79
78839;BME280;68405;47.190;27.558;2023-09-07T07:46:39;100723.39;;;46.01;11.14
78839;BME280;68405;47.190;27.558;2023-09-07T07:49:10;100723.27;;;47.35;10.10
78839;BME280;68405;47.190;27.558;2023-09-07T07:51:42;100720.07;;;48.03;9.78
78839;BME280;68405;47.190;27.558;2023-09-07T07:54:13;100718.35;;;47.21;10.06
78839;BME280;68405;47.190;27.558;2023-09-07T07:56:45;100719.27;;;46.17;10.71
78839;BME280;68405;47.190;27.558;2023-09-07T07:59:21;100714.83;;;45.03;11.34
78839;BME280;68405;47.190;27.558;2023-09-07T08:01:53;100711.42;;;45.50;11.39
78839;BME280;68405;47.190;27.558;2023-09-07T08:04:24;100713.55;;;46.62;10.78
78839;BME280;68405;47.190;27.558;2023-09-07T08:06:58;100711.36;;;47.46;10.01
78839;BME280;68405;47.190;27.558;2023-09-07T08:09:34;100708.23;;;47.76;9.70
78839;BME280;68405;47.190;27.558;2023-09-07T08:12:06;100707.74;;;48.28;9.20
78839;BME280;68405;47.190;27.558;2023-09-07T08:14:36;100706.02;;;49.38;8.80
78839;BME280;68405;47.190;27.558;2023-09-07T08:17:08;100704.95;;;47.41;9.97
78839;BME280;68405;47.190;27.558;2023-09-07T08:19:39;100705.30;;;48.83;9.45
78839;BME280;68405;47.190;27.558;2023-09-07T08:22:11;100703.30;;;49.95;8.77
78839;BME280;68405;47.190;27.558;2023-09-07T08:24:42;100698.59;;;50.03;8.44
78839;BME280;68405;47.190;27.558;2023-09-07T08:27:15;100698.37;;;49.44;8.55
78839;BME280;68405;47.190;27.558;2023-09-07T08:29:48;100699.84;;;50.11;8.59
78839;BME280;68405;47.190;27.558;2023-09-07T08:32:21;100701.76;;;50.68;8.08
78839;BME280;68405;47.190;27.558;2023-09-07T08:34:53;100698.69;;;50.91;7.55
78839;BME280;68405;47.190;27.558;2023-09-07T08:37:30;100699.59;;;50.63;7.74
78839;BME280;68405;47.190;27.558;2023-09-07T08:40:04;100697.04;;;49.55;8.72
78839;BME280;68405;47.190;27.558;2023-09-07T08:42:38;100697.27;;;50.07;8.21
78839;BME280;68405;47.190;27.558;2023-09-07T08:45:16;100694.92;;;50.13;7.98
78839;BME280;68405;47.190;27.558;2023-09-07T08:47:51;100695.20;;;49.99;8.39
78839;BME280;68405;47.190;27.558;2023-09-07T08:50:24;100693.36;;;49.59;8.31
78839;BME280;68405;47.190;27.558;2023-09-07T08:52:56;100687.46;;;50.76;8.13
78839;BME280;68405;47.190;27.558;2023-09-07T08:55:29;100691.92;;;50.71;8.07
78839;BME280;68405;47.190;27.558;2023-09-07T08:58:01;100691.48;;;51.14;7.69
78839;BME280;68405;47.190;27.558;2023-09-07T09:00:33;100685.98;;;51.61;7.79
78839;BME280;68405;47.190;27.558;2023-09-07T09:03:06;100685.65;;;50.87;7.73
78839;BME280;68405;47.190;27.558;2023-09-07T09:05:40;100684.83;;;50.34;8.26
78839;BME280;68405;47.190;27.558;2023-09-07T09:08:12;100681.90;;;50.35;8.21
78839;BME280;68405;47.190;27.558;2023-09-07T09:10:43;100680.21;;;48.58;8.99
78839;BME280;68405;47.190;27.558;2023-09-07T09:13:15;100675.50;;;49.18;8.95
78839;BME280;68405;47.190;27.558;2023-09-07T09:15:50;100672.06;;;48.83;9.17
78839;BME280;68405;47.190;27.558;2023-09-07T09:18:21;100671.46;;;49.44;8.97
78839;BME280;68405;47.190;27.558;2023-09-07T09:20:53;100669.14;;;49.50;8.60
78839;BME280;68405;47.190;27.558;2023-09-07T09:23:32;100670.23;;;49.96;8.37
78839;BME280;68405;47.190;27.558;2023-09-07T09:26:04;100666.88;;;50.43;8.14
78839;BME280;68405;47.190;27.558;2023-09-07T09:28:34;100660.98;;;48.44;9.23
78839;BME280;68405;47.190;27.558;2023-09-07T09:31:06;100662.34;;;48.25;9.19
78839;BME280;68405;47.190;27.558;2023-09-07T09:33:44;100664.13;;;47.67;9.57
78839;BME280;68405;47.190;27.558;2023-09-07T09:36:19;100660.33;;;48.29;9.26
78839;BME280;68405;47.190;27.558;2023-09-07T09:38:52;100659.36;;;48.17;9.27
78839;BME280;68405;47.190;27.558;2023-09-07T09:41:24;100657.13;;;46.35;10.26
78839;BME280;68405;47.190;27.558;2023-09-07T09:43:57;100652.99;;;47.41;9.80
78839;BME280;68405;47.190;27.558;2023-09-07T09:46:33;100647.80;;;48.31;9.17
78839;BME280;68405;47.190;27.558;2023-09-07T09:49:07;100644.88;;;48.03;9.39
78839;BME280;68405;47.190;27.558;2023-09-07T09:51:43;100650.55;;;47.24;9.83
78839;BME280;68405;47.190;27.558;2023-09-07T09:54:18;100648.99;;;46.56;10.05
78839;BME280;68405;47.190;27.558;2023-09-07T09:56:50;100647.88;;;46.57;10.19
78839;BME280;68405;47.190;27.558;2023-09-07T09:59:23;100645.48;;;45.18;11.38
78839;BME280;68405;47.190;27.558;2023-09-07T10:01:53;100642.73;;;42.58;13.23
78839;BME280;68405;47.190;27.558;2023-09-07T10:04:27;100640.44;;;42.44;13.52
78839;BME280;68405;47.190;27.558;2023-09-07T10:06:58;100636.52;;;42.22;13.66
78839;BME280;68405;47.190;27.558;2023-09-07T10:09:34;100634.09;;;40.58;15.18
78839;BME280;68405;47.190;27.558;2023-09-07T10:12:13;100630.91;;;41.50;14.65
78839;BME280;68405;47.190;27.558;2023-09-07T10:14:45;100634.35;;;42.31;13.78
78839;BME280;68405;47.190;27.558;2023-09-07T10:17:27;100631.23;;;41.76;13.75
78839;BME280;68405;47.190;27.558;2023-09-07T10:20:07;100629.42;;;41.60;13.68
78839;BME280;68405;47.190;27.558;2023-09-07T10:22:39;100622.88;;;42.82;13.07
78839;BME280;68405;47.190;27.558;2023-09-07T10:25:22;100622.67;;;43.43;12.81
78839;BME280;68405;47.190;27.558;2023-09-07T10:27:54;100624.95;;;42.57;13.10
78839;BME280;68405;47.190;27.558;2023-09-07T10:30:26;100624.79;;;41.83;13.68
78839;BME280;68405;47.190;27.558;2023-09-07T10:32:59;100618.64;;;39.94;15.44
78839;BME280;68405;47.190;27.558;2023-09-07T10:35:37;100613.55;;;38.63;16.79
78839;BME280;68405;47.190;27.558;2023-09-07T10:38:17;100618.31;;;37.59;17.48
78839;BME280;68405;47.190;27.558;2023-09-07T10:40:49;100620.39;;;36.62;18.77
78839;BME280;68405;47.190;27.558;2023-09-07T10:43:28;100610.73;;;36.13;19.16
78839;BME280;68405;47.190;27.558;2023-09-07T10:46:01;100610.47;;;36.55;19.20
78839;BME280;68405;47.190;27.558;2023-09-07T10:48:35;100605.06;;;38.63;17.20
78839;BME280;68405;47.190;27.558;2023-09-07T10:51:07;100605.04;;;38.03;16.49
78839;BME280;68405;47.190;27.558;2023-09-07T10:53:39;100598.38;;;37.89;16.74
78839;BME280;68405;47.190;27.558;2023-09-07T10:56:11;100597.75;;;37.16;17.33
78839;BME280;68405;47.190;27.558;2023-09-07T10:58:45;100586.94;;;38.60;15.63
78839;BME280;68405;47.190;27.558;2023-09-07T11:01:21;100589.25;;;40.14;14.05
78839;BME280;68405;47.190;27.558;2023-09-07T11:03:53;100593.67;;;39.93;14.40
78839;BME280;68405;47.190;27.558;2023-09-07T11:06:25;100591.14;;;39.19;15.35
78839;BME280;68405;47.190;27.558;2023-09-07T11:08:57;100588.73;;;39.10;15.59
78839;BME280;68405;47.190;27.558;2023-09-07T11:11:31;100590.66;;;39.14;15.96
78839;BME280;68405;47.190;27.558;2023-09-07T11:14:03;100586.88;;;38.10;16.60
78839;BME280;68405;47.190;27.558;2023-09-07T11:16:36;100585.17;;;38.16;16.35
78839;BME280;68405;47.190;27.558;2023-09-07T11:19:08;100585.39;;;37.73;16.45
78839;BME280;68405;47.190;27.558;2023-09-07T11:21:41;100576.75;;;37.98;16.65
78839;BME280;68405;47.190;27.558;2023-09-07T11:24:13;100579.73;;;37.89;17.00
78839;BME280;68405;47.190;27.558;2023-09-07T11:26:46;100576.69;;;37.85;17.69
78839;BME280;68405;47.190;27.558;2023-09-07T11:29:19;100577.96;;;38.38;16.47
78839;BME280;68405;47.190;27.558;2023-09-07T11:31:51;100573.39;;;38.87;16.12
78839;BME280;68405;47.190;27.558;2023-09-07T11:34:23;100572.22;;;39.09;15.67
78839;BME280;68405;47.190;27.558;2023-09-07T11:36:54;100568.13;;;38.58;15.93
78839;BME280;68405;47.190;27.558;2023-09-07T11:39:26;100562.89;;;38.15;16.27
78839;BME280;68405;47.190;27.558;2023-09-07T11:41:58;100564.15;;;38.30;16.54
78839;BME280;68405;47.190;27.558;2023-09-07T11:44:30;100562.48;;;38.43;16.63
78839;BME280;68405;47.190;27.558;2023-09-07T11:47:01;100565.00;;;38.54;16.16
78839;BME280;68405;47.190;27.558;2023-09-07T11:49:33;100560.98;;;38.47;16.77
78839;BME280;68405;47.190;27.558;2023-09-07T11:52:06;100556.80;;;38.16;16.69
78839;BME280;68405;47.190;27.558;2023-09-07T11:54:38;100557.41;;;37.50;17.82
78839;BME280;68405;47.190;27.558;2023-09-07T11:57:10;100554.39;;;37.52;17.78
78839;BME280;68405;47.190;27.558;2023-09-07T11:59:41;100553.70;;;37.40;17.41
78839;BME280;68405;47.190;27.558;2023-09-07T12:02:13;100550.73;;;37.49;17.47
78839;BME280;68405;47.190;27.558;2023-09-07T12:04:46;100549.85;;;37.12;17.95
78839;BME280;68405;47.190;27.558;2023-09-07T12:07:17;100547.79;;;36.78;18.68
78839;BME280;68405;47.190;27.558;2023-09-07T12:09:50;100548.78;;;35.11;20.35
78839;BME280;68405;47.190;27.558;2023-09-07T12:12:22;100544.30;;;34.61;21.07
78839;BME280;68405;47.190;27.558;2023-09-07T12:14:53;100538.75;;;34.16;21.07
78839;BME280;68405;47.190;27.558;2023-09-07T12:17:26;100538.80;;;34.44;21.09
78839;BME280;68405;47.190;27.558;2023-09-07T12:19:58;100540.98;;;34.03;21.45
78839;BME280;68405;47.190;27.558;2023-09-07T12:22:30;100535.77;;;34.05;21.15
78839;BME280;68405;47.190;27.558;2023-09-07T12:25:05;100526.97;;;34.12;20.34
78839;BME280;68405;47.190;27.558;2023-09-07T12:27:38;100532.98;;;33.87;22.03
78839;BME280;68405;47.190;27.558;2023-09-07T12:30:11;100536.74;;;33.62;22.05
78839;BME280;68405;47.190;27.558;2023-09-07T12:32:43;100534.46;;;33.44;22.44
78839;BME280;68405;47.190;27.558;2023-09-07T12:35:15;100532.55;;;33.46;23.05
78839;BME280;68405;47.190;27.558;2023-09-07T12:37:47;100530.13;;;33.33;22.75
78839;BME280;68405;47.190;27.558;2023-09-07T12:40:18;100529.77;;;33.09;23.37
78839;BME280;68405;47.190;27.558;2023-09-07T12:42:50;100532.14;;;33.27;23.70
78839;BME280;68405;47.190;27.558;2023-09-07T12:45:22;100531.61;;;32.97;23.97
78839;BME280;68405;47.190;27.558;2023-09-07T12:47:53;100526.45;;;32.93;23.70
78839;BME280;68405;47.190;27.558;2023-09-07T12:50:25;100528.58;;;32.70;24.01
78839;BME280;68405;47.190;27.558;2023-09-07T12:52:57;100529.17;;;32.81;24.37
78839;BME280;68405;47.190;27.558;2023-09-07T12:55:29;100527.64;;;33.10;23.87
78839;BME280;68405;47.190;27.558;2023-09-07T12:58:01;100527.54;;;33.13;24.17
78839;BME280;68405;47.190;27.558;2023-09-07T13:00:33;100528.00;;;32.65;24.77
78839;BME280;68405;47.190;27.558;2023-09-07T13:03:05;100530.35;;;32.44;24.86
78839;BME280;68405;47.190;27.558;2023-09-07T13:05:37;100528.14;;;32.31;25.21
78839;BME280;68405;47.190;27.558;2023-09-07T13:08:09;100525.70;;;32.01;25.67
78839;BME280;68405;47.190;27.558;2023-09-07T13:10:41;100527.02;;;31.62;25.76
78839;BME280;68405;47.190;27.558;2023-09-07T13:13:12;100523.75;;;31.34;26.87
78839;BME280;68405;47.190;27.558;2023-09-07T13:15:44;100519.60;;;31.20;26.89
78839;BME280;68405;47.190;27.558;2023-09-07T13:18:16;100521.33;;;30.92;27.03
78839;BME280;68405;47.190;27.558;2023-09-07T13:20:48;100524.06;;;30.69;27.31
78839;BME280;68405;47.190;27.558;2023-09-07T13:23:22;100524.17;;;30.28;27.44
78839;BME280;68405;47.190;27.558;2023-09-07T13:25:53;100524.06;;;30.31;27.52
78839;BME280;68405;47.190;27.558;2023-09-07T13:28:25;100523.09;;;30.66;27.68
78839;BME280;68405;47.190;27.558;2023-09-07T13:30:57;100518.66;;;30.68;26.95
78839;BME280;68405;47.190;27.558;2023-09-07T13:33:28;100515.66;;;30.92;26.65
78839;BME280;68405;47.190;27.558;2023-09-07T13:36:00;100514.58;;;31.21;26.66
78839;BME280;68405;47.190;27.558;2023-09-07T13:38:32;100512.91;;;31.31;26.08
78839;BME280;68405;47.190;27.558;2023-09-07T13:41:04;100513.12;;;31.45;26.32